Time;durP1;ratioP1;P1;durP2;ratioP2;P2;SDS_P1;SDS_P2;PMS_P1;PMS_P2;Temp;Humidity;BMP_temperature;BMP_pressure;BME280_temperature;BME280_humidity;BME280_pressure;Samples;Min_cycle;Max_cycle;Signal;HPM_P1;HPM_P2
2023/03/10 00:00:30;;;;;;;;;5.67;4.67;;;;;13.74;73.67;98538.88;2086270;28;46615;-67
2023/03/10 00:01:32;;;;;;;;;3.67;3.67;;;;;13.73;73.15;98533.66;2079304;28;45675;-67
2023/03/10 00:02:33;;;;;;;;;4.25;4.25;;;;;13.73;73.48;98534.50;2077497;28;46928;-67
2023/03/10 00:03:34;;;;;;;;;4.25;4.00;;;;;13.72;73.08;98524.78;2080116;28;46897;-67
2023/03/10 00:04:34;;;;;;;;;9.00;5.00;;;;;13.74;73.31;98530.00;2087280;28;46452;-67
2023/03/10 00:05:38;;;;;;;;;3.33;3.33;;;;;13.74;73.47;98522.03;2087307;28;46180;-68
2023/03/10 00:06:39;;;;;;;;;4.75;4.75;;;;;13.75;73.37;98529.91;2085955;28;46849;-68
2023/03/10 00:07:39;;;;;;;;;5.33;4.33;;;;;13.75;73.31;98524.56;2087358;28;46699;-66
2023/03/10 00:08:40;;;;;;;;;4.00;3.33;;;;;13.76;72.98;98526.28;2085626;28;46606;-67
2023/03/10 00:09:40;;;;;;;;;4.00;4.00;;;;;13.76;72.62;98528.94;2087131;28;45982;-67
2023/03/10 00:10:41;;;;;;;;;7.00;3.67;;;;;13.76;72.99;98523.63;2078870;28;46061;-67
2023/03/10 00:11:41;;;;;;;;;3.67;2.67;;;;;13.76;72.96;98525.44;2079653;28;45940;-67
2023/03/10 00:12:42;;;;;;;;;5.00;4.33;;;;;13.75;72.29;98521.06;2087173;28;45098;-67
2023/03/10 00:13:43;;;;;;;;;4.50;3.75;;;;;13.75;72.34;98521.06;2088626;28;46306;-67
2023/03/10 00:14:43;;;;;;;;;5.00;4.67;;;;;13.74;72.00;98536.19;2077338;28;45574;-66
2023/03/10 00:15:43;;;;;;;;;8.67;4.33;;;;;13.75;71.99;98535.22;2070030;28;45927;-68
2023/03/10 00:16:44;;;;;;;;;7.00;3.00;;;;;13.73;71.91;98518.50;2077939;28;45591;-67
2023/03/10 00:17:44;;;;;;;;;7.67;5.00;;;;;13.75;72.38;98524.56;2086967;28;45637;-68
2023/03/10 00:18:45;;;;;;;;;2.67;2.33;;;;;13.76;71.95;98515.63;2087300;28;45471;-66
2023/03/10 00:19:46;;;;;;;;;5.50;4.75;;;;;13.76;71.95;98517.44;2086676;28;46920;-67
2023/03/10 00:20:49;;;;;;;;;5.33;4.00;;;;;13.78;71.99;98528.84;2085393;28;46879;-67
2023/03/10 00:21:50;;;;;;;;;3.50;3.50;;;;;13.78;71.59;98521.69;2086298;28;46155;-67
2023/03/10 00:22:50;;;;;;;;;4.67;3.67;;;;;13.78;71.38;98512.84;2087243;28;45748;-67
2023/03/10 00:23:51;;;;;;;;;7.00;5.67;;;;;13.79;71.65;98527.88;2087146;28;46705;-67
2023/03/10 00:24:51;;;;;;;;;7.00;5.67;;;;;13.79;71.48;98522.53;2087438;28;46171;-67
2023/03/10 00:25:54;;;;;;;;;5.00;3.00;;;;;13.79;71.17;98509.22;2086200;28;46649;-66
2023/03/10 00:26:55;;;;;;;;;5.25;3.25;;;;;13.81;71.37;98507.28;2086309;28;46786;-69
2023/03/10 00:27:55;;;;;;;;;7.00;4.33;;;;;13.80;70.71;98511.75;2087677;28;45619;-69
2023/03/10 00:28:55;;;;;;;;;10.00;7.00;;;;;13.82;71.38;98504.50;2070953;28;46062;-68
2023/03/10 00:29:56;;;;;;;;;2.67;2.67;;;;;13.82;71.00;98509.84;2070407;28;46478;-67
2023/03/10 00:31:02;;;;;;;;;4.67;4.67;;;;;13.83;71.19;98494.69;2086059;28;46459;-66
2023/03/10 00:32:03;;;;;;;;;3.50;2.25;;;;;13.83;70.92;98486.69;2083802;28;46059;-67
2023/03/10 00:33:03;;;;;;;;;6.00;4.67;;;;;13.82;70.72;98488.50;2079384;28;46838;-68
2023/03/10 00:34:04;;;;;;;;;5.00;5.00;;;;;13.83;70.94;98498.22;2078892;28;46193;-68
2023/03/10 00:35:05;;;;;;;;;4.00;3.67;;;;;13.84;70.77;98493.72;2079759;28;45889;-69
2023/03/10 00:36:15;;;;;;;;;4.50;4.00;;;;;13.82;70.50;98490.31;2078183;28;46763;-66
2023/03/10 00:37:16;;;;;;;;;8.00;3.50;;;;;13.81;70.64;98494.81;2078319;28;46712;-68
2023/03/10 00:38:16;;;;;;;;;5.00;4.33;;;;;13.80;70.42;98492.25;2080299;28;45870;-68
2023/03/10 00:39:16;;;;;;;;;4.33;3.00;;;;;13.79;71.05;98494.06;2081029;28;46319;-66
2023/03/10 00:40:17;;;;;;;;;4.33;4.00;;;;;13.80;70.90;98486.91;2078346;28;46148;-67
2023/03/10 00:41:20;;;;;;;;;8.67;4.00;;;;;13.79;70.60;98477.22;2080453;28;46862;-66
2023/03/10 00:42:20;;;;;;;;;5.50;4.75;;;;;13.79;70.79;98483.41;2079620;28;47120;-67
2023/03/10 00:43:20;;;;;;;;;6.00;4.00;;;;;13.80;70.82;98471.78;2080249;28;45950;-66
2023/03/10 00:44:21;;;;;;;;;6.00;4.00;;;;;13.81;70.78;98477.97;2080170;28;45615;-66
2023/03/10 00:45:21;;;;;;;;;5.00;3.33;;;;;13.80;70.71;98473.59;2079943;28;44937;-68
2023/03/10 00:46:23;;;;;;;;;2.67;2.33;;;;;13.80;70.66;98461.13;2079768;28;46282;-67
2023/03/10 00:47:23;;;;;;;;;4.00;3.50;;;;;13.79;70.76;98463.88;2075618;28;45615;-67
2023/03/10 00:48:24;;;;;;;;;8.67;6.00;;;;;13.79;70.69;98456.75;2087916;28;46048;-67
2023/03/10 00:49:24;;;;;;;;;5.67;5.00;;;;;13.79;70.46;98454.06;2087987;28;45467;-67
2023/03/10 00:50:24;;;;;;;;;4.33;4.00;;;;;13.79;70.49;98464.75;2089656;28;45661;-67
2023/03/10 00:51:24;;;;;;;;;8.00;5.00;;;;;13.78;70.36;98449.72;2089973;28;46334;-66
2023/03/10 00:52:26;;;;;;;;;4.00;4.00;;;;;13.79;70.30;98463.88;2080056;28;46128;-68
2023/03/10 00:53:27;;;;;;;;;3.75;3.75;;;;;13.78;70.50;98446.19;2080833;28;45704;-67
2023/03/10 00:54:27;;;;;;;;;4.50;3.00;;;;;13.78;70.26;98460.38;2079903;28;46931;-67
2023/03/10 00:55:28;;;;;;;;;8.67;6.00;;;;;13.79;70.46;98464.75;2080212;28;46590;-66
2023/03/10 00:56:29;;;;;;;;;3.33;3.33;;;;;13.75;70.02;98443.75;2079350;28;46552;-67
2023/03/10 00:57:29;;;;;;;;;2.75;2.50;;;;;13.75;70.12;98460.59;2087593;28;46320;-67
2023/03/10 00:58:30;;;;;;;;;6.00;4.00;;;;;13.74;70.10;98472.22;2087679;28;46077;-66
2023/03/10 00:59:31;;;;;;;;;10.25;6.00;;;;;13.73;70.07;98470.53;2079669;28;46437;-66
2023/03/10 01:00:31;;;;;;;;;5.67;4.33;;;;;13.73;69.75;98469.66;2080226;28;46769;-67
2023/03/10 01:01:38;;;;;;;;;3.67;3.67;;;;;13.71;70.18;98469.75;2079820;28;46288;-67
2023/03/10 01:02:38;;;;;;;;;6.75;4.25;;;;;13.71;69.96;98474.22;2080293;28;46333;-67
2023/03/10 01:03:39;;;;;;;;;6.67;3.33;;;;;13.70;69.94;98489.38;2080664;28;46467;-67
2023/03/10 01:04:39;;;;;;;;;2.67;2.67;;;;;13.68;70.07;98488.63;2079747;28;46630;-67
2023/03/10 01:05:39;;;;;;;;;6.00;2.67;;;;;13.67;69.66;98491.41;2080027;28;45205;-67
2023/03/10 01:06:43;;;;;;;;;4.00;2.33;;;;;13.64;69.74;98486.28;2081610;28;45509;-67
2023/03/10 01:07:43;;;;;;;;;4.75;4.75;;;;;13.63;69.88;98469.47;2083431;28;47501;-67
2023/03/10 01:08:43;;;;;;;;;6.33;3.33;;;;;13.62;69.67;98482.88;2090804;28;46424;-67
2023/03/10 01:09:44;;;;;;;;;4.67;3.33;;;;;13.61;69.28;98481.19;2095359;28;46235;-67
2023/03/10 01:10:45;;;;;;;;;2.33;2.33;;;;;13.61;69.69;98478.53;2080885;28;46913;-67
2023/03/10 01:11:46;;;;;;;;;2.75;2.75;;;;;13.60;69.44;98459.00;2083599;28;46603;-67
2023/03/10 01:12:46;;;;;;;;;3.33;2.33;;;;;13.57;69.57;98464.53;2086019;28;45560;-67
2023/03/10 01:13:47;;;;;;;;;2.67;2.67;;;;;13.54;69.54;98473.59;2088188;28;46462;-67
2023/03/10 01:14:48;;;;;;;;;3.00;2.75;;;;;13.53;69.51;98469.22;2085920;28;46825;-67
2023/03/10 01:15:49;;;;;;;;;3.33;3.33;;;;;13.52;69.64;98480.84;2082856;28;46670;-67
2023/03/10 01:16:50;;;;;;;;;3.00;3.00;;;;;13.51;69.26;98473.81;2086238;28;45994;-66
2023/03/10 01:17:50;;;;;;;;;2.00;2.00;;;;;13.50;69.48;98473.94;2088178;28;46364;-68
2023/03/10 01:18:50;;;;;;;;;3.67;2.00;;;;;13.49;69.49;98466.91;2079710;28;45899;-68
2023/03/10 01:19:51;;;;;;;;;2.00;2.00;;;;;13.47;69.59;98463.50;2080018;28;46518;-66
2023/03/10 01:20:51;;;;;;;;;3.33;1.33;;;;;13.44;68.87;98461.88;2075574;28;45498;-67
2023/03/10 01:21:51;;;;;;;;;2.33;2.00;;;;;13.43;69.33;98451.31;2084232;28;45126;-66
2023/03/10 01:22:52;;;;;;;;;1.00;1.00;;;;;13.41;69.17;98447.91;2086331;28;45840;-66
2023/03/10 01:23:53;;;;;;;;;4.33;3.00;;;;;13.38;69.13;98445.47;2079947;28;46638;-67
2023/03/10 01:24:53;;;;;;;;;3.50;2.00;;;;;13.37;69.17;98455.28;2077649;28;46637;-67
2023/03/10 01:25:54;;;;;;;;;2.33;2.33;;;;;13.36;69.32;98439.41;2093859;28;45862;-67
2023/03/10 01:26:54;;;;;;;;;4.00;2.33;;;;;13.34;69.02;98433.31;2090303;28;46904;-66
2023/03/10 01:27:54;;;;;;;;;1.67;1.00;;;;;13.33;69.12;98436.94;2083269;28;45920;-67
2023/03/10 01:28:55;;;;;;;;;2.00;2.00;;;;;13.33;69.24;98439.59;2079846;28;46538;-67
2023/03/10 01:29:55;;;;;;;;;1.67;1.67;;;;;13.32;68.93;98445.88;2080276;28;46295;-67
2023/03/10 01:30:55;;;;;;;;;1.33;1.00;;;;;13.29;68.72;98436.28;2083880;28;46583;-67
2023/03/10 01:31:56;;;;;;;;;1.67;1.67;;;;;13.28;68.47;98449.72;2079355;28;46324;-66
2023/03/10 01:32:56;;;;;;;;;3.33;3.33;;;;;13.27;68.69;98450.69;2079328;28;46354;-68
2023/03/10 01:33:57;;;;;;;;;3.33;2.67;;;;;13.23;68.64;98445.56;2086060;28;46454;-68
2023/03/10 01:34:57;;;;;;;;;1.00;1.00;;;;;13.21;68.68;98447.50;2080523;28;46061;-68
2023/03/10 01:35:57;;;;;;;;;3.00;1.00;;;;;13.21;68.83;98455.47;2082128;28;45439;-66
2023/03/10 01:36:58;;;;;;;;;3.67;3.67;;;;;13.21;68.87;98455.47;2084099;28;45587;-67
2023/03/10 01:37:58;;;;;;;;;1.00;1.00;;;;;13.21;68.64;98457.25;2076042;28;46395;-67
2023/03/10 01:38:59;;;;;;;;;2.00;2.00;;;;;13.19;68.69;98454.72;2081524;28;46210;-67
2023/03/10 01:40:00;;;;;;;;;3.33;1.00;;;;;13.19;68.55;98449.38;2092363;28;47207;-66
2023/03/10 01:41:00;;;;;;;;;0.75;0.75;;;;;13.18;68.70;98455.66;2098436;28;45816;-66
2023/03/10 01:42:00;;;;;;;;;1.00;0.00;;;;;13.16;68.67;98452.22;2080735;28;45652;-67
2023/03/10 01:43:44;;;;;;;;;1.00;1.00;;;;;13.14;68.29;98448.81;2080482;28;46761;-67
2023/03/10 01:45:04;;;;;;;;;1.75;1.00;;;;;13.14;68.39;98451.50;2070594;28;47020;-66
2023/03/10 01:46:25;;;;;;;;;1.00;1.00;;;;;13.15;68.57;98449.69;2066853;28;45788;-67
2023/03/10 01:47:26;;;;;;;;;2.50;1.25;;;;;13.12;68.30;98445.41;2070087;28;46115;-66
2023/03/10 01:48:28;;;;;;;;;1.33;1.33;;;;;13.10;68.46;98439.34;2070454;28;45496;-67
2023/03/10 01:49:43;;;;;;;;;2.00;2.00;;;;;13.10;68.50;98449.16;2070461;28;46415;-67
2023/03/10 01:50:47;;;;;;;;;1.00;1.00;;;;;13.07;68.02;98436.88;2065116;28;47117;-67
2023/03/10 01:52:04;;;;;;;;;1.75;1.25;;;;;13.06;68.02;98450.28;2069139;28;46571;-67
2023/03/10 01:53:04;;;;;;;;;3.00;0.50;;;;;13.05;68.22;98441.47;2070668;28;46192;-68
2023/03/10 01:54:10;;;;;;;;;1.67;1.00;;;;;13.04;67.86;98446.88;2067278;28;45886;-68
2023/03/10 01:55:12;;;;;;;;;2.25;2.00;;;;;13.04;67.69;98439.75;2064978;28;46810;-68
2023/03/10 01:56:13;;;;;;;;;2.00;1.00;;;;;13.04;67.77;98433.56;2069250;28;45891;-67
2023/03/10 01:57:15;;;;;;;;;2.25;2.00;;;;;13.03;68.02;98438.06;2070650;28;46485;-67
2023/03/10 01:58:19;;;;;;;;;4.50;1.50;;;;;13.04;67.72;98437.09;2069613;28;46616;-68
2023/03/10 01:59:20;;;;;;;;;1.25;1.25;;;;;13.03;67.72;98432.72;2071245;28;46489;-67
2023/03/10 02:00:23;;;;;;;;;2.75;1.00;;;;;13.04;67.56;98431.75;2069650;28;45694;-67
2023/03/10 02:01:24;;;;;;;;;1.75;1.75;;;;;13.04;67.51;98430.91;2070582;28;46671;-67
2023/03/10 02:02:25;;;;;;;;;1.00;1.00;;;;;13.05;67.40;98422.81;2069735;28;46715;-68
2023/03/10 02:03:31;;;;;;;;;4.67;2.00;;;;;13.06;67.51;98421.00;2069654;28;45421;-66
2023/03/10 02:04:41;;;;;;;;;1.50;1.50;;;;;13.08;67.17;98430.59;2069573;28;46798;-66
2023/03/10 02:05:49;;;;;;;;;2.00;1.00;;;;;13.09;67.28;98424.34;2068733;28;46640;-66
2023/03/10 02:06:50;;;;;;;;;4.25;2.50;;;;;13.10;67.02;98428.69;2062372;28;45804;-68
2023/03/10 02:07:51;;;;;;;;;2.75;2.50;;;;;13.10;67.47;98428.69;2061676;28;46739;-68
2023/03/10 02:08:56;;;;;;;;;5.00;3.00;;;;;13.11;67.06;98424.22;2069732;28;46640;-67
2023/03/10 02:09:58;;;;;;;;;2.75;1.00;;;;;13.11;67.24;98417.09;2070335;28;46444;-67
2023/03/10 02:11:00;;;;;;;;;1.25;1.00;;;;;13.13;67.17;98411.66;2070225;28;46763;-66
2023/03/10 02:12:02;;;;;;;;;1.00;1.00;;;;;13.14;67.40;98408.88;2068628;28;46478;-66
2023/03/10 02:13:03;;;;;;;;;2.25;2.00;;;;;13.15;67.13;98412.41;2070295;28;45899;-66
2023/03/10 02:14:05;;;;;;;;;3.67;2.00;;;;;13.14;67.03;98408.88;2065350;28;45880;-67
2023/03/10 02:15:07;;;;;;;;;2.50;2.50;;;;;13.14;66.70;98408.03;2067134;28;46499;-66
2023/03/10 02:16:07;;;;;;;;;1.75;1.75;;;;;13.15;67.03;98407.06;2070237;28;47542;-66
2023/03/10 02:17:12;;;;;;;;;2.00;2.00;;;;;13.14;66.98;98395.56;2064196;28;46039;-67
2023/03/10 02:18:14;;;;;;;;;3.00;2.00;;;;;13.15;66.58;98391.94;2066036;28;46129;-66
2023/03/10 02:19:38;;;;;;;;;3.25;3.25;;;;;13.18;66.80;98386.44;2071017;28;46895;-67
2023/03/10 02:20:50;;;;;;;;;2.75;1.25;;;;;13.17;66.63;98384.69;2075523;28;46850;-66
2023/03/10 02:22:02;;;;;;;;;3.00;2.00;;;;;13.19;66.82;98385.47;2072615;28;46494;-66
2023/03/10 02:23:02;;;;;;;;;2.50;2.00;;;;;13.18;66.57;98389.09;2078101;28;46293;-68
2023/03/10 02:24:28;;;;;;;;;2.00;1.33;;;;;13.19;66.62;98376.63;2079663;28;45727;-67
2023/03/10 02:25:34;;;;;;;;;1.00;1.00;;;;;13.19;66.35;98381.94;2075108;28;46934;-67
2023/03/10 02:27:01;;;;;;;;;1.50;1.50;;;;;13.19;66.71;98379.28;2079305;28;46412;-67
2023/03/10 02:28:03;;;;;;;;;4.00;2.50;;;;;13.18;66.42;98377.56;2079062;28;46698;-67
2023/03/10 02:29:09;;;;;;;;;3.00;1.00;;;;;13.15;66.17;98378.63;2079013;28;46318;-66
2023/03/10 02:30:25;;;;;;;;;3.00;2.00;;;;;13.13;66.13;98377.03;2078753;28;47026;-68
2023/03/10 02:31:26;;;;;;;;;6.25;3.50;;;;;13.10;66.27;98375.44;2079657;28;45502;-67
2023/03/10 02:32:31;;;;;;;;;2.25;2.25;;;;;13.10;66.22;98387.91;2078632;28;46926;-68
2023/03/10 02:33:32;;;;;;;;;2.50;2.00;;;;;13.11;66.35;98378.97;2079123;28;46975;-66
2023/03/10 02:34:33;;;;;;;;;2.00;2.00;;;;;13.09;66.10;98379.06;2078465;28;46552;-67
2023/03/10 02:35:33;;;;;;;;;5.00;3.00;;;;;13.10;66.06;98367.47;2078904;28;46730;-66
2023/03/10 02:36:34;;;;;;;;;2.00;2.00;;;;;13.09;66.10;98368.41;2077353;28;45295;-67
2023/03/10 02:37:35;;;;;;;;;2.67;2.67;;;;;13.09;65.77;98375.56;2077357;28;46303;-67
2023/03/10 02:38:35;;;;;;;;;2.00;2.00;;;;;13.08;65.82;98369.34;2079380;28;46713;-66
2023/03/10 02:39:36;;;;;;;;;1.33;1.00;;;;;13.09;65.85;98376.41;2092250;28;46744;-67
2023/03/10 02:40:44;;;;;;;;;3.33;2.00;;;;;13.10;65.84;98377.25;2093141;28;46507;-67
2023/03/10 02:41:46;;;;;;;;;6.00;4.75;;;;;13.11;65.76;98379.81;2074807;28;46292;-66
2023/03/10 02:42:46;;;;;;;;;2.00;1.75;;;;;13.11;66.02;98371.81;2075365;28;46314;-67
2023/03/10 02:43:47;;;;;;;;;2.00;2.00;;;;;13.13;65.83;98374.38;2077522;28;46096;-67
2023/03/10 02:44:48;;;;;;;;;1.00;1.00;;;;;13.12;65.95;98362.03;2079651;28;46734;-68
2023/03/10 02:45:51;;;;;;;;;2.33;2.00;;;;;13.11;65.58;98369.16;2079485;28;45614;-67
2023/03/10 02:46:51;;;;;;;;;4.00;4.00;;;;;13.09;65.84;98368.41;2079174;28;46550;-67
2023/03/10 02:47:51;;;;;;;;;1.33;1.33;;;;;13.09;65.61;98370.22;2073095;28;47115;-66
2023/03/10 02:48:52;;;;;;;;;3.67;3.00;;;;;13.06;65.61;98365.94;2078981;28;46705;-66
2023/03/10 02:49:52;;;;;;;;;7.67;3.00;;;;;13.06;65.49;98371.25;2079011;28;45636;-67
2023/03/10 02:50:54;;;;;;;;;7.00;4.00;;;;;13.05;65.56;98369.56;2079838;28;45360;-67
2023/03/10 02:51:56;;;;;;;;;4.25;2.50;;;;;13.05;65.56;98366.91;2079350;28;46712;-67
2023/03/10 02:53:04;;;;;;;;;2.25;2.25;;;;;13.05;65.56;98358.06;2074227;28;46528;-66
2023/03/10 02:54:07;;;;;;;;;4.50;3.50;;;;;13.06;65.45;98368.59;2079105;28;46797;-67
2023/03/10 02:55:13;;;;;;;;;3.00;3.00;;;;;13.07;65.62;98354.31;2079376;28;45879;-66
2023/03/10 02:56:14;;;;;;;;;2.75;2.00;;;;;13.08;65.27;98355.19;2079124;28;46606;-66
2023/03/10 02:57:14;;;;;;;;;4.00;2.67;;;;;13.07;64.96;98342.81;2079884;28;46751;-67
2023/03/10 02:58:15;;;;;;;;;3.00;3.00;;;;;13.05;64.95;98344.75;2079681;28;46830;-66
2023/03/10 02:59:15;;;;;;;;;3.25;3.00;;;;;13.05;65.08;98350.94;2084352;28;45653;-67
2023/03/10 03:00:16;;;;;;;;;3.33;2.00;;;;;13.04;64.94;98359.03;2079476;28;46199;-67
2023/03/10 03:01:16;;;;;;;;;3.00;2.33;;;;;13.04;65.20;98348.38;2077213;28;46739;-67
2023/03/10 03:02:17;;;;;;;;;3.00;2.00;;;;;13.03;64.90;98352.84;2085037;28;46878;-67
2023/03/10 03:03:20;;;;;;;;;6.00;1.00;;;;;13.03;65.04;98347.53;2076782;28;46901;-66
2023/03/10 03:04:20;;;;;;;;;3.75;2.75;;;;;13.04;65.38;98349.22;2074935;28;46548;-66
2023/03/10 03:05:20;;;;;;;;;3.00;1.67;;;;;13.06;65.31;98349.97;2079183;28;46253;-67
2023/03/10 03:06:21;;;;;;;;;2.33;1.00;;;;;13.07;65.23;98356.16;2078818;28;46523;-67
2023/03/10 03:07:21;;;;;;;;;4.00;3.33;;;;;13.08;65.30;98348.03;2084203;28;46513;-67
2023/03/10 03:08:22;;;;;;;;;2.00;2.00;;;;;13.09;65.02;98354.25;2078870;28;46779;-66
2023/03/10 03:09:22;;;;;;;;;3.75;3.00;;;;;13.09;65.09;98354.25;2085641;28;46003;-66
2023/03/10 03:10:23;;;;;;;;;5.00;3.00;;;;;13.09;65.16;98351.59;2079167;28;45450;-67
2023/03/10 03:11:24;;;;;;;;;5.00;3.67;;;;;13.08;64.91;98355.19;2076574;28;46264;-66
2023/03/10 03:12:24;;;;;;;;;2.00;2.00;;;;;13.08;64.60;98355.19;2073770;28;46258;-66
2023/03/10 03:13:24;;;;;;;;;4.67;1.67;;;;;13.07;64.68;98353.47;2075058;28;47118;-67
2023/03/10 03:14:25;;;;;;;;;3.33;1.67;;;;;13.06;64.62;98349.97;2082164;28;46770;-66
2023/03/10 03:15:25;;;;;;;;;1.67;0.67;;;;;13.06;64.83;98352.63;2076652;28;46211;-68
2023/03/10 03:16:25;;;;;;;;;0.67;0.67;;;;;13.04;64.57;98349.22;2080754;28;45523;-66
2023/03/10 03:17:27;;;;;;;;;2.33;0.33;;;;;13.04;64.42;98357.22;2077850;28;46324;-67
2023/03/10 03:18:27;;;;;;;;;2.00;0.25;;;;;13.03;64.53;98344.88;2081048;28;46427;-67
2023/03/10 03:19:28;;;;;;;;;2.00;2.00;;;;;13.04;64.53;98343.91;2078596;28;47015;-66
2023/03/10 03:20:29;;;;;;;;;0.00;0.00;;;;;13.06;64.90;98338.47;2080690;28;46590;-66
2023/03/10 03:21:30;;;;;;;;;3.50;3.00;;;;;13.06;64.70;98339.31;2080446;28;46767;-66
2023/03/10 03:22:30;;;;;;;;;3.00;2.00;;;;;13.06;64.51;98341.13;2079076;28;46583;-66
2023/03/10 03:23:32;;;;;;;;;2.00;2.00;;;;;13.06;65.04;98346.44;2080094;28;46273;-66
2023/03/10 03:24:32;;;;;;;;;2.25;1.00;;;;;13.05;64.56;98342.94;2079609;28;45257;-67
2023/03/10 03:25:36;;;;;;;;;2.00;1.67;;;;;13.05;65.00;98340.28;2080226;28;46447;-66
2023/03/10 03:26:36;;;;;;;;;3.00;1.00;;;;;13.04;64.64;98338.56;2096552;28;46349;-67
2023/03/10 03:27:37;;;;;;;;;1.00;1.00;;;;;13.03;64.53;98341.34;2088744;28;45979;-66
2023/03/10 03:28:37;;;;;;;;;3.50;1.50;;;;;13.02;64.56;98347.63;2076044;28;46501;-67
2023/03/10 03:29:38;;;;;;;;;0.67;0.00;;;;;12.98;64.71;98339.00;2080385;28;46387;-67
2023/03/10 03:30:39;;;;;;;;;4.33;1.00;;;;;12.98;64.80;98346.16;2080793;28;45997;-67
2023/03/10 03:31:39;;;;;;;;;1.00;1.00;;;;;12.96;64.81;98340.94;2080477;28;46421;-66
2023/03/10 03:32:41;;;;;;;;;1.00;0.67;;;;;12.95;64.70;98350.69;2080741;28;46514;-68
2023/03/10 03:33:42;;;;;;;;;1.25;1.25;;;;;12.93;64.84;98328.66;2080752;28;45580;-67
2023/03/10 03:34:42;;;;;;;;;1.00;1.00;;;;;12.93;65.17;98349.97;2080438;28;47087;-67
2023/03/10 03:35:43;;;;;;;;;1.00;1.00;;;;;12.92;64.75;98348.25;2079882;28;46912;-66
2023/03/10 03:36:43;;;;;;;;;1.67;0.67;;;;;12.93;65.12;98349.13;2080476;28;46756;-67
2023/03/10 03:37:44;;;;;;;;;1.00;1.00;;;;;12.90;65.06;98339.53;2080480;28;44987;-66
2023/03/10 03:38:44;;;;;;;;;1.00;1.00;;;;;12.91;65.32;98345.72;2078571;28;45976;-67
2023/03/10 03:39:45;;;;;;;;;0.00;0.00;;;;;12.90;65.22;98346.66;2093141;28;46210;-66
2023/03/10 03:40:45;;;;;;;;;4.00;2.33;;;;;12.90;65.27;98352.84;2080147;28;46642;-66
2023/03/10 03:41:47;;;;;;;;;1.00;1.00;;;;;12.91;65.44;98345.72;2089323;28;46496;-67
2023/03/10 03:42:49;;;;;;;;;0.00;0.00;;;;;12.90;65.46;98352.00;2090826;28;46494;-66
2023/03/10 03:43:50;;;;;;;;;2.00;2.00;;;;;12.89;65.58;98358.28;2078908;28;45188;-67
2023/03/10 03:44:50;;;;;;;;;4.00;2.00;;;;;12.88;65.66;98356.56;2096260;28;46270;-69
2023/03/10 03:45:50;;;;;;;;;2.33;0.67;;;;;12.85;65.63;98364.78;2096112;28;46888;-66
2023/03/10 03:46:51;;;;;;;;;2.00;1.00;;;;;12.82;65.85;98349.00;2087681;28;45868;-67
2023/03/10 03:47:51;;;;;;;;;3.00;2.00;;;;;12.78;66.14;98348.34;2079440;28;46848;-67
2023/03/10 03:48:51;;;;;;;;;2.33;1.00;;;;;12.75;66.16;98361.88;2081268;28;46149;-66
2023/03/10 03:49:52;;;;;;;;;3.67;1.00;;;;;12.74;66.31;98354.84;2075990;28;46545;-67
2023/03/10 03:50:52;;;;;;;;;1.00;1.00;;;;;12.73;66.72;98361.13;2080691;28;46185;-66
2023/03/10 03:51:52;;;;;;;;;1.00;0.67;;;;;12.74;66.79;98360.19;2074240;28;46455;-67
2023/03/10 03:52:53;;;;;;;;;2.67;2.00;;;;;12.74;66.81;98359.31;2076873;28;46473;-67
2023/03/10 03:53:53;;;;;;;;;2.00;2.00;;;;;12.75;67.00;98369.88;2080005;28;45831;-67
2023/03/10 03:54:53;;;;;;;;;1.00;1.00;;;;;12.77;67.17;98369.75;2080556;28;45884;-67
2023/03/10 03:55:54;;;;;;;;;1.33;0.33;;;;;12.78;67.40;98363.47;2096668;28;45884;-67
2023/03/10 03:56:54;;;;;;;;;3.00;1.00;;;;;12.78;67.21;98355.50;2096827;28;45841;-66
2023/03/10 03:57:55;;;;;;;;;4.67;4.67;;;;;12.79;67.23;98359.84;2078425;28;46063;-66
2023/03/10 03:58:56;;;;;;;;;3.67;1.00;;;;;12.80;67.14;98365.06;2079814;28;45782;-66
2023/03/10 03:59:57;;;;;;;;;2.75;2.75;;;;;12.81;67.16;98361.44;2076255;28;45905;-66
2023/03/10 04:00:57;;;;;;;;;6.00;2.00;;;;;12.83;67.23;98366.66;2080315;28;45861;-66
2023/03/10 04:01:57;;;;;;;;;2.00;2.00;;;;;12.82;67.17;98363.16;2087668;28;46384;-66
2023/03/10 04:02:58;;;;;;;;;4.00;3.00;;;;;12.83;67.23;98359.56;2088327;28;45486;-66
2023/03/10 04:03:58;;;;;;;;;2.33;2.00;;;;;12.83;67.15;98353.34;2076551;28;46392;-67
2023/03/10 04:05:00;;;;;;;;;4.00;2.67;;;;;12.83;67.15;98362.22;2086081;28;45392;-67
2023/03/10 04:06:00;;;;;;;;;6.50;2.00;;;;;12.82;67.09;98364.97;2078720;28;46695;-66
2023/03/10 04:07:01;;;;;;;;;3.67;2.00;;;;;12.83;67.05;98359.56;2080549;28;45468;-67
2023/03/10 04:08:01;;;;;;;;;3.00;2.33;;;;;12.80;67.02;98358.91;2077873;28;45810;-66
2023/03/10 04:09:02;;;;;;;;;2.67;2.00;;;;;12.77;67.08;98354.63;2078729;28;46705;-66
2023/03/10 04:10:04;;;;;;;;;3.67;3.33;;;;;12.74;67.48;98365.50;2075372;28;46200;-66
2023/03/10 04:11:04;;;;;;;;;2.25;2.25;;;;;12.72;67.43;98348.78;2079553;28;45996;-67
2023/03/10 04:12:06;;;;;;;;;2.00;2.00;;;;;12.72;67.44;98353.25;2080372;28;46442;-66
2023/03/10 04:13:06;;;;;;;;;3.00;3.00;;;;;12.70;67.59;98356.00;2072889;28;47369;-66
2023/03/10 04:14:06;;;;;;;;;7.33;2.67;;;;;12.70;67.56;98348.03;2081864;28;45707;-66
2023/03/10 04:15:07;;;;;;;;;3.00;1.00;;;;;12.70;67.81;98350.69;2083186;28;46748;-66
2023/03/10 04:16:08;;;;;;;;;4.00;4.00;;;;;12.70;67.84;98356.00;2079456;28;45108;-68
2023/03/10 04:17:08;;;;;;;;;5.00;4.67;;;;;12.71;67.62;98356.88;2080248;28;46191;-66
2023/03/10 04:18:09;;;;;;;;;3.00;3.00;;;;;12.71;67.85;98354.22;2080544;28;45553;-66
2023/03/10 04:19:09;;;;;;;;;4.67;3.00;;;;;12.72;67.89;98355.94;2079754;28;45997;-66
2023/03/10 04:20:14;;;;;;;;;3.33;3.33;;;;;12.73;68.01;98357.63;2085574;28;46668;-66
2023/03/10 04:21:16;;;;;;;;;3.00;3.00;;;;;12.74;68.00;98360.19;2087087;28;45770;-66
2023/03/10 04:22:16;;;;;;;;;4.00;2.25;;;;;12.75;67.83;98353.03;2077796;28;46243;-66
2023/03/10 04:23:16;;;;;;;;;3.00;2.00;;;;;12.75;68.06;98350.38;2074772;28;47232;-66
2023/03/10 04:24:17;;;;;;;;;4.00;3.67;;;;;12.77;68.17;98356.44;2073435;28;45630;-67
2023/03/10 04:25:17;;;;;;;;;2.00;2.00;;;;;12.77;68.14;98356.44;2082162;28;45680;-66
2023/03/10 04:26:17;;;;;;;;;3.00;2.00;;;;;12.76;67.87;98349.44;2083613;28;46793;-66
2023/03/10 04:27:18;;;;;;;;;4.33;2.00;;;;;12.77;67.88;98354.63;2077959;28;46651;-67
2023/03/10 04:28:18;;;;;;;;;4.67;2.00;;;;;12.75;67.88;98343.25;2078997;28;45250;-66
2023/03/10 04:29:23;;;;;;;;;4.33;3.00;;;;;12.77;68.20;98346.66;2090365;28;46090;-65
2023/03/10 04:30:28;;;;;;;;;2.00;2.00;;;;;12.77;68.16;98349.31;2082710;28;46673;-67
2023/03/10 04:31:28;;;;;;;;;6.00;4.00;;;;;12.79;68.32;98349.22;2078368;28;46250;-66
2023/03/10 04:32:28;;;;;;;;;3.00;2.33;;;;;12.79;68.52;98358.03;2085299;28;46444;-66
2023/03/10 04:33:29;;;;;;;;;3.00;2.00;;;;;12.78;68.17;98350.16;2081923;28;46604;-67
2023/03/10 04:34:29;;;;;;;;;2.67;2.67;;;;;12.77;68.61;98349.31;2075797;28;46349;-66
2023/03/10 04:35:30;;;;;;;;;4.67;2.67;;;;;12.78;68.67;98348.34;2080789;28;46044;-67
2023/03/10 04:36:30;;;;;;;;;2.67;2.00;;;;;12.79;68.57;98354.53;2080122;28;45083;-66
2023/03/10 04:37:31;;;;;;;;;3.67;3.33;;;;;12.78;68.55;98350.16;2078554;28;46755;-66
2023/03/10 04:38:31;;;;;;;;;2.33;1.33;;;;;12.77;68.60;98345.81;2084518;28;46471;-66
2023/03/10 04:39:32;;;;;;;;;3.67;3.67;;;;;12.75;68.53;98351.25;2090197;28;46256;-66
2023/03/10 04:40:32;;;;;;;;;1.00;1.00;;;;;12.73;68.56;98350.50;2093037;28;46243;-66
2023/03/10 04:41:33;;;;;;;;;1.00;1.00;;;;;12.73;68.71;98352.31;2077338;28;45911;-65
2023/03/10 04:42:33;;;;;;;;;1.67;1.67;;;;;12.72;68.54;98347.94;2074457;28;46268;-67
2023/03/10 04:43:34;;;;;;;;;3.33;2.00;;;;;12.71;68.76;98348.91;2078397;28;46804;-67
2023/03/10 04:44:34;;;;;;;;;2.50;2.00;;;;;12.70;68.83;98356.00;2081158;28;46983;-67
2023/03/10 04:45:35;;;;;;;;;5.00;2.00;;;;;12.70;68.73;98363.97;2079843;28;45911;-67
2023/03/10 04:46:35;;;;;;;;;2.33;2.00;;;;;12.70;68.68;98363.97;2080185;28;45935;-66
2023/03/10 04:47:36;;;;;;;;;1.00;1.00;;;;;12.68;69.00;98349.94;2074173;28;47038;-67
2023/03/10 04:48:37;;;;;;;;;3.00;1.00;;;;;12.67;68.89;98357.06;2075415;28;46432;-66
2023/03/10 04:49:37;;;;;;;;;1.00;1.00;;;;;12.67;68.84;98357.06;2080089;28;46849;-67
2023/03/10 04:50:38;;;;;;;;;1.33;1.33;;;;;12.65;68.68;98353.66;2077995;28;47408;-66
2023/03/10 04:51:38;;;;;;;;;4.00;1.67;;;;;12.63;68.97;98357.38;2079648;28;46965;-67